sensor_id;sensor_type;location;lat;lon;timestamp;P1;durP1;ratioP1;P2;durP2;ratioP2
20935;SDS011;10627;54.514;18.532;2023-02-03T00:00:53;3.47;;;2.00;;
20935;SDS011;10627;54.514;18.532;2023-02-03T00:05:54;5.10;;;2.10;;
20935;SDS011;10627;54.514;18.532;2023-02-03T00:10:54;3.60;;;2.27;;
20935;SDS011;10627;54.514;18.532;2023-02-03T00:15:55;3.97;;;2.10;;
20935;SDS011;10627;54.514;18.532;2023-02-03T00:20:56;7.10;;;2.53;;
20935;SDS011;10627;54.514;18.532;2023-02-03T00:25:57;6.87;;;2.73;;
20935;SDS011;10627;54.514;18.532;2023-02-03T00:30:58;7.03;;;3.10;;
20935;SDS011;10627;54.514;18.532;2023-02-03T00:36:03;10.23;;;3.40;;
20935;SDS011;10627;54.514;18.532;2023-02-03T00:41:04;8.03;;;3.77;;
20935;SDS011;10627;54.514;18.532;2023-02-03T00:46:05;11.43;;;4.70;;
20935;SDS011;10627;54.514;18.532;2023-02-03T00:51:05;11.57;;;4.83;;
20935;SDS011;10627;54.514;18.532;2023-02-03T00:56:06;9.43;;;4.50;;
20935;SDS011;10627;54.514;18.532;2023-02-03T01:01:11;14.07;;;4.33;;
20935;SDS011;10627;54.514;18.532;2023-02-03T01:06:13;13.27;;;4.40;;
20935;SDS011;10627;54.514;18.532;2023-02-03T01:11:15;12.53;;;4.67;;
20935;SDS011;10627;54.514;18.532;2023-02-03T01:16:17;11.80;;;4.97;;
20935;SDS011;10627;54.514;18.532;2023-02-03T01:21:19;13.87;;;4.23;;
20935;SDS011;10627;54.514;18.532;2023-02-03T01:26:21;11.67;;;4.63;;
20935;SDS011;10627;54.514;18.532;2023-02-03T01:31:23;9.17;;;3.87;;
20935;SDS011;10627;54.514;18.532;2023-02-03T01:36:25;8.60;;;4.10;;
20935;SDS011;10627;54.514;18.532;2023-02-03T01:41:27;9.47;;;4.33;;
20935;SDS011;10627;54.514;18.532;2023-02-03T01:51:29;10.77;;;3.30;;
20935;SDS011;10627;54.514;18.532;2023-02-03T01:56:31;5.83;;;2.70;;
20935;SDS011;10627;54.514;18.532;2023-02-03T02:01:32;7.27;;;3.60;;
20935;SDS011;10627;54.514;18.532;2023-02-03T02:06:33;7.33;;;3.37;;
20935;SDS011;10627;54.514;18.532;2023-02-03T02:11:34;7.07;;;3.60;;
20935;SDS011;10627;54.514;18.532;2023-02-03T02:43:01;13.60;;;5.57;;
20935;SDS011;10627;54.514;18.532;2023-02-03T02:48:06;12.43;;;5.27;;
20935;SDS011;10627;54.514;18.532;2023-02-03T02:53:09;12.53;;;6.30;;
20935;SDS011;10627;54.514;18.532;2023-02-03T02:58:12;14.13;;;5.80;;
20935;SDS011;10627;54.514;18.532;2023-02-03T03:03:21;13.23;;;5.90;;
20935;SDS011;10627;54.514;18.532;2023-02-03T03:08:23;20.23;;;6.93;;
20935;SDS011;10627;54.514;18.532;2023-02-03T03:13:31;11.67;;;5.70;;
20935;SDS011;10627;54.514;18.532;2023-02-03T03:18:35;12.90;;;6.30;;
20935;SDS011;10627;54.514;18.532;2023-02-03T03:23:37;15.23;;;6.43;;
20935;SDS011;10627;54.514;18.532;2023-02-03T03:28:45;14.40;;;5.73;;
20935;SDS011;10627;54.514;18.532;2023-02-03T03:33:46;14.70;;;6.27;;
20935;SDS011;10627;54.514;18.532;2023-02-03T03:38:53;14.27;;;5.90;;
20935;SDS011;10627;54.514;18.532;2023-02-03T03:43:55;11.33;;;6.00;;
20935;SDS011;10627;54.514;18.532;2023-02-03T03:48:59;10.33;;;5.27;;
20935;SDS011;10627;54.514;18.532;2023-02-03T03:54:03;10.37;;;5.33;;
20935;SDS011;10627;54.514;18.532;2023-02-03T03:59:05;9.47;;;4.50;;
20935;SDS011;10627;54.514;18.532;2023-02-03T04:04:07;8.33;;;4.40;;
20935;SDS011;10627;54.514;18.532;2023-02-03T04:09:08;7.30;;;4.67;;
20935;SDS011;10627;54.514;18.532;2023-02-03T04:14:09;10.40;;;4.40;;
20935;SDS011;10627;54.514;18.532;2023-02-03T04:19:09;10.97;;;4.93;;
20935;SDS011;10627;54.514;18.532;2023-02-03T04:24:10;11.27;;;5.07;;
20935;SDS011;10627;54.514;18.532;2023-02-03T04:29:11;13.43;;;5.50;;
20935;SDS011;10627;54.514;18.532;2023-02-03T04:34:12;8.70;;;4.00;;
20935;SDS011;10627;54.514;18.532;2023-02-03T04:39:12;9.17;;;4.10;;
20935;SDS011;10627;54.514;18.532;2023-02-03T04:44:13;7.97;;;3.67;;
20935;SDS011;10627;54.514;18.532;2023-02-03T04:49:13;6.53;;;3.40;;
20935;SDS011;10627;54.514;18.532;2023-02-03T04:54:14;7.63;;;3.37;;
20935;SDS011;10627;54.514;18.532;2023-02-03T04:59:14;7.83;;;2.93;;
20935;SDS011;10627;54.514;18.532;2023-02-03T05:04:15;4.93;;;2.77;;
20935;SDS011;10627;54.514;18.532;2023-02-03T05:09:16;6.40;;;3.37;;
20935;SDS011;10627;54.514;18.532;2023-02-03T05:14:16;6.43;;;3.33;;
20935;SDS011;10627;54.514;18.532;2023-02-03T05:19:17;7.50;;;3.67;;
20935;SDS011;10627;54.514;18.532;2023-02-03T05:24:17;9.07;;;3.70;;
20935;SDS011;10627;54.514;18.532;2023-02-03T05:29:18;10.57;;;4.23;;
20935;SDS011;10627;54.514;18.532;2023-02-03T05:34:18;11.47;;;4.13;;
20935;SDS011;10627;54.514;18.532;2023-02-03T05:39:19;8.87;;;4.40;;
20935;SDS011;10627;54.514;18.532;2023-02-03T05:44:23;11.10;;;4.67;;
20935;SDS011;10627;54.514;18.532;2023-02-03T05:49:24;7.17;;;4.27;;
20935;SDS011;10627;54.514;18.532;2023-02-03T05:54:25;8.93;;;4.87;;
20935;SDS011;10627;54.514;18.532;2023-02-03T05:59:25;9.07;;;4.90;;
20935;SDS011;10627;54.514;18.532;2023-02-03T06:04:26;6.13;;;3.80;;
20935;SDS011;10627;54.514;18.532;2023-02-03T06:09:26;8.33;;;4.40;;
20935;SDS011;10627;54.514;18.532;2023-02-03T06:14:27;9.80;;;4.80;;
20935;SDS011;10627;54.514;18.532;2023-02-03T06:19:28;14.23;;;6.47;;
20935;SDS011;10627;54.514;18.532;2023-02-03T06:24:28;19.27;;;7.77;;
20935;SDS011;10627;54.514;18.532;2023-02-03T06:29:29;14.73;;;6.70;;
20935;SDS011;10627;54.514;18.532;2023-02-03T06:34:29;17.27;;;6.20;;
20935;SDS011;10627;54.514;18.532;2023-02-03T06:39:30;11.40;;;4.47;;
20935;SDS011;10627;54.514;18.532;2023-02-03T06:44:31;11.50;;;4.30;;
20935;SDS011;10627;54.514;18.532;2023-02-03T06:49:32;11.43;;;4.97;;
20935;SDS011;10627;54.514;18.532;2023-02-03T06:54:32;16.00;;;5.67;;
20935;SDS011;10627;54.514;18.532;2023-02-03T06:59:33;12.83;;;6.23;;
20935;SDS011;10627;54.514;18.532;2023-02-03T07:04:33;17.30;;;7.80;;
20935;SDS011;10627;54.514;18.532;2023-02-03T07:09:34;13.30;;;6.57;;
20935;SDS011;10627;54.514;18.532;2023-02-03T07:14:35;20.43;;;9.13;;
20935;SDS011;10627;54.514;18.532;2023-02-03T07:19:35;18.53;;;8.60;;
20935;SDS011;10627;54.514;18.532;2023-02-03T07:24:36;14.50;;;7.70;;
20935;SDS011;10627;54.514;18.532;2023-02-03T07:29:36;12.73;;;8.03;;
20935;SDS011;10627;54.514;18.532;2023-02-03T07:34:38;17.87;;;7.70;;
20935;SDS011;10627;54.514;18.532;2023-02-03T07:39:38;17.07;;;8.57;;
20935;SDS011;10627;54.514;18.532;2023-02-03T07:44:39;18.53;;;8.20;;
20935;SDS011;10627;54.514;18.532;2023-02-03T07:49:40;16.63;;;8.80;;
20935;SDS011;10627;54.514;18.532;2023-02-03T07:54:40;20.07;;;10.10;;
20935;SDS011;10627;54.514;18.532;2023-02-03T07:59:41;23.27;;;9.17;;
20935;SDS011;10627;54.514;18.532;2023-02-03T08:04:41;19.30;;;10.03;;
20935;SDS011;10627;54.514;18.532;2023-02-03T08:09:42;18.57;;;9.27;;
20935;SDS011;10627;54.514;18.532;2023-02-03T08:14:43;18.87;;;9.13;;
20935;SDS011;10627;54.514;18.532;2023-02-03T08:19:43;19.43;;;10.23;;
20935;SDS011;10627;54.514;18.532;2023-02-03T08:24:45;20.53;;;9.30;;
20935;SDS011;10627;54.514;18.532;2023-02-03T08:29:46;21.63;;;9.50;;
20935;SDS011;10627;54.514;18.532;2023-02-03T08:34:47;18.20;;;9.73;;
20935;SDS011;10627;54.514;18.532;2023-02-03T08:39:48;15.37;;;8.60;;
20935;SDS011;10627;54.514;18.532;2023-02-03T08:44:49;17.47;;;9.63;;
20935;SDS011;10627;54.514;18.532;2023-02-03T08:49:49;17.07;;;9.23;;
20935;SDS011;10627;54.514;18.532;2023-02-03T08:54:50;18.03;;;8.43;;
20935;SDS011;10627;54.514;18.532;2023-02-03T08:59:50;14.53;;;7.50;;
20935;SDS011;10627;54.514;18.532;2023-02-03T09:04:51;16.33;;;7.27;;
20935;SDS011;10627;54.514;18.532;2023-02-03T09:09:51;13.97;;;6.33;;
20935;SDS011;10627;54.514;18.532;2023-02-03T09:14:52;19.97;;;7.87;;
20935;SDS011;10627;54.514;18.532;2023-02-03T09:19:53;12.73;;;6.80;;
20935;SDS011;10627;54.514;18.532;2023-02-03T09:24:53;17.80;;;8.10;;
20935;SDS011;10627;54.514;18.532;2023-02-03T09:29:54;14.97;;;7.53;;
20935;SDS011;10627;54.514;18.532;2023-02-03T09:34:54;13.67;;;7.40;;
20935;SDS011;10627;54.514;18.532;2023-02-03T09:39:55;12.83;;;6.80;;
20935;SDS011;10627;54.514;18.532;2023-02-03T09:45:01;19.97;;;7.23;;
20935;SDS011;10627;54.514;18.532;2023-02-03T09:50:05;16.90;;;7.60;;
20935;SDS011;10627;54.514;18.532;2023-02-03T10:00:18;19.97;;;9.57;;
20935;SDS011;10627;54.514;18.532;2023-02-03T10:25:41;32.03;;;12.73;;
20935;SDS011;10627;54.514;18.532;2023-02-03T10:30:44;30.03;;;13.87;;
20935;SDS011;10627;54.514;18.532;2023-02-03T10:41:05;22.57;;;12.43;;
20935;SDS011;10627;54.514;18.532;2023-02-03T10:46:06;26.30;;;11.20;;
20935;SDS011;10627;54.514;18.532;2023-02-03T10:51:23;27.37;;;12.60;;
20935;SDS011;10627;54.514;18.532;2023-02-03T10:56:24;26.97;;;12.00;;
20935;SDS011;10627;54.514;18.532;2023-02-03T11:01:27;26.40;;;13.83;;
20935;SDS011;10627;54.514;18.532;2023-02-03T11:06:28;25.27;;;14.90;;
20935;SDS011;10627;54.514;18.532;2023-02-03T11:11:30;29.60;;;15.10;;
20935;SDS011;10627;54.514;18.532;2023-02-03T11:16:33;22.17;;;13.90;;
20935;SDS011;10627;54.514;18.532;2023-02-03T11:26:42;28.67;;;12.53;;
20935;SDS011;10627;54.514;18.532;2023-02-03T11:31:45;20.30;;;10.40;;
20935;SDS011;10627;54.514;18.532;2023-02-03T11:36:47;19.83;;;10.77;;
20935;SDS011;10627;54.514;18.532;2023-02-03T11:41:47;21.73;;;10.50;;
20935;SDS011;10627;54.514;18.532;2023-02-03T11:46:53;19.67;;;10.73;;
20935;SDS011;10627;54.514;18.532;2023-02-03T11:52:16;13.53;;;6.40;;
20935;SDS011;10627;54.514;18.532;2023-02-03T12:13:14;11.73;;;7.30;;
20935;SDS011;10627;54.514;18.532;2023-02-03T12:34:32;14.97;;;8.60;;
20935;SDS011;10627;54.514;18.532;2023-02-03T12:39:29;18.30;;;8.53;;
20935;SDS011;10627;54.514;18.532;2023-02-03T12:44:33;15.53;;;8.60;;
20935;SDS011;10627;54.514;18.532;2023-02-03T12:49:42;7.97;;;6.03;;
20935;SDS011;10627;54.514;18.532;2023-02-03T12:54:56;19.53;;;7.87;;
20935;SDS011;10627;54.514;18.532;2023-02-03T13:05:25;25.53;;;10.83;;
20935;SDS011;10627;54.514;18.532;2023-02-03T13:10:30;14.50;;;7.77;;
20935;SDS011;10627;54.514;18.532;2023-02-03T13:15:37;22.30;;;12.00;;
20935;SDS011;10627;54.514;18.532;2023-02-03T13:20:39;22.87;;;10.80;;
20935;SDS011;10627;54.514;18.532;2023-02-03T13:30:51;25.13;;;12.53;;
20935;SDS011;10627;54.514;18.532;2023-02-03T13:46:06;25.73;;;11.17;;
20935;SDS011;10627;54.514;18.532;2023-02-03T13:56:30;7.73;;;5.40;;
20935;SDS011;10627;54.514;18.532;2023-02-03T14:16:38;46.73;;;18.37;;
20935;SDS011;10627;54.514;18.532;2023-02-03T14:21:51;17.40;;;7.53;;
20935;SDS011;10627;54.514;18.532;2023-02-03T14:26:53;19.17;;;7.20;;
20935;SDS011;10627;54.514;18.532;2023-02-03T14:31:56;16.90;;;5.93;;
20935;SDS011;10627;54.514;18.532;2023-02-03T14:37:07;16.23;;;5.63;;
20935;SDS011;10627;54.514;18.532;2023-02-03T14:42:16;15.73;;;6.70;;
20935;SDS011;10627;54.514;18.532;2023-02-03T14:47:33;18.63;;;8.10;;
20935;SDS011;10627;54.514;18.532;2023-02-03T14:57:49;21.00;;;10.50;;
20935;SDS011;10627;54.514;18.532;2023-02-03T15:03:33;22.37;;;11.30;;
20935;SDS011;10627;54.514;18.532;2023-02-03T15:13:39;13.80;;;9.07;;
20935;SDS011;10627;54.514;18.532;2023-02-03T15:18:40;19.30;;;11.17;;
20935;SDS011;10627;54.514;18.532;2023-02-03T15:23:41;12.90;;;7.87;;
20935;SDS011;10627;54.514;18.532;2023-02-03T15:28:57;12.67;;;8.53;;
20935;SDS011;10627;54.514;18.532;2023-02-03T15:33:59;30.53;;;16.30;;
20935;SDS011;10627;54.514;18.532;2023-02-03T15:39:12;39.17;;;16.53;;
20935;SDS011;10627;54.514;18.532;2023-02-03T15:44:24;33.83;;;16.00;;
20935;SDS011;10627;54.514;18.532;2023-02-03T15:49:28;27.60;;;13.47;;
20935;SDS011;10627;54.514;18.532;2023-02-03T15:54:36;23.53;;;11.83;;
20935;SDS011;10627;54.514;18.532;2023-02-03T15:59:42;14.87;;;8.57;;
20935;SDS011;10627;54.514;18.532;2023-02-03T16:04:45;27.97;;;15.27;;
20935;SDS011;10627;54.514;18.532;2023-02-03T16:09:46;22.53;;;11.17;;
20935;SDS011;10627;54.514;18.532;2023-02-03T16:14:46;20.03;;;8.70;;
20935;SDS011;10627;54.514;18.532;2023-02-03T16:19:47;11.40;;;6.20;;
20935;SDS011;10627;54.514;18.532;2023-02-03T16:24:50;18.37;;;10.50;;
20935;SDS011;10627;54.514;18.532;2023-02-03T16:35:23;18.50;;;9.93;;
20935;SDS011;10627;54.514;18.532;2023-02-03T16:40:44;10.37;;;5.03;;
20935;SDS011;10627;54.514;18.532;2023-02-03T16:46:07;16.03;;;6.67;;
20935;SDS011;10627;54.514;18.532;2023-02-03T16:51:33;11.90;;;4.77;;
20935;SDS011;10627;54.514;18.532;2023-02-03T16:56:34;19.80;;;8.87;;
20935;SDS011;10627;54.514;18.532;2023-02-03T17:01:34;10.03;;;6.13;;
20935;SDS011;10627;54.514;18.532;2023-02-03T17:06:36;22.57;;;8.50;;
20935;SDS011;10627;54.514;18.532;2023-02-03T17:11:37;13.10;;;6.50;;
20935;SDS011;10627;54.514;18.532;2023-02-03T17:16:38;11.93;;;6.27;;
20935;SDS011;10627;54.514;18.532;2023-02-03T17:21:38;11.90;;;5.77;;
20935;SDS011;10627;54.514;18.532;2023-02-03T17:26:39;15.37;;;7.30;;
20935;SDS011;10627;54.514;18.532;2023-02-03T17:31:40;12.67;;;6.53;;
20935;SDS011;10627;54.514;18.532;2023-02-03T17:36:40;7.90;;;4.37;;
20935;SDS011;10627;54.514;18.532;2023-02-03T17:41:41;8.37;;;5.03;;
20935;SDS011;10627;54.514;18.532;2023-02-03T17:46:42;12.70;;;6.20;;
20935;SDS011;10627;54.514;18.532;2023-02-03T17:51:43;18.80;;;6.73;;
20935;SDS011;10627;54.514;18.532;2023-02-03T17:56:43;11.70;;;7.03;;
20935;SDS011;10627;54.514;18.532;2023-02-03T18:01:47;13.13;;;5.83;;
20935;SDS011;10627;54.514;18.532;2023-02-03T18:06:48;14.63;;;7.00;;
20935;SDS011;10627;54.514;18.532;2023-02-03T18:11:49;11.50;;;5.70;;
20935;SDS011;10627;54.514;18.532;2023-02-03T18:16:49;19.57;;;9.00;;
20935;SDS011;10627;54.514;18.532;2023-02-03T18:21:50;9.80;;;4.10;;
20935;SDS011;10627;54.514;18.532;2023-02-03T18:26:51;12.03;;;5.40;;
20935;SDS011;10627;54.514;18.532;2023-02-03T18:31:51;15.90;;;5.13;;
20935;SDS011;10627;54.514;18.532;2023-02-03T18:36:53;9.43;;;4.40;;
20935;SDS011;10627;54.514;18.532;2023-02-03T18:41:54;6.53;;;3.90;;
20935;SDS011;10627;54.514;18.532;2023-02-03T18:46:54;9.00;;;3.57;;
20935;SDS011;10627;54.514;18.532;2023-02-03T18:51:55;4.63;;;3.00;;
20935;SDS011;10627;54.514;18.532;2023-02-03T18:56:56;4.63;;;3.27;;
20935;SDS011;10627;54.514;18.532;2023-02-03T19:01:58;7.87;;;3.43;;
20935;SDS011;10627;54.514;18.532;2023-02-03T19:06:58;16.87;;;6.97;;
20935;SDS011;10627;54.514;18.532;2023-02-03T19:11:59;9.13;;;3.50;;
20935;SDS011;10627;54.514;18.532;2023-02-03T19:17:00;5.03;;;3.40;;
20935;SDS011;10627;54.514;18.532;2023-02-03T19:22:00;11.83;;;4.93;;
20935;SDS011;10627;54.514;18.532;2023-02-03T19:27:01;7.17;;;3.77;;
20935;SDS011;10627;54.514;18.532;2023-02-03T19:32:01;9.70;;;4.10;;
20935;SDS011;10627;54.514;18.532;2023-02-03T19:37:02;19.70;;;7.50;;
20935;SDS011;10627;54.514;18.532;2023-02-03T19:42:02;6.77;;;3.50;;
20935;SDS011;10627;54.514;18.532;2023-02-03T19:47:03;18.60;;;8.27;;
20935;SDS011;10627;54.514;18.532;2023-02-03T19:52:04;9.30;;;4.30;;
20935;SDS011;10627;54.514;18.532;2023-02-03T19:57:07;10.83;;;4.50;;
20935;SDS011;10627;54.514;18.532;2023-02-03T20:02:08;9.60;;;4.20;;
20935;SDS011;10627;54.514;18.532;2023-02-03T20:07:10;13.90;;;5.93;;
20935;SDS011;10627;54.514;18.532;2023-02-03T20:12:10;7.03;;;3.77;;
20935;SDS011;10627;54.514;18.532;2023-02-03T20:17:11;17.33;;;4.43;;
20935;SDS011;10627;54.514;18.532;2023-02-03T20:22:12;6.53;;;3.80;;
20935;SDS011;10627;54.514;18.532;2023-02-03T20:27:12;12.67;;;4.73;;
20935;SDS011;10627;54.514;18.532;2023-02-03T20:32:13;11.30;;;4.50;;
20935;SDS011;10627;54.514;18.532;2023-02-03T20:37:13;6.80;;;3.57;;
20935;SDS011;10627;54.514;18.532;2023-02-03T20:42:14;13.50;;;4.87;;
20935;SDS011;10627;54.514;18.532;2023-02-03T20:47:16;12.47;;;4.80;;
20935;SDS011;10627;54.514;18.532;2023-02-03T20:52:18;9.23;;;4.90;;
20935;SDS011;10627;54.514;18.532;2023-02-03T20:57:19;12.40;;;4.40;;
20935;SDS011;10627;54.514;18.532;2023-02-03T21:02:25;10.23;;;4.57;;
20935;SDS011;10627;54.514;18.532;2023-02-03T21:07:51;5.83;;;3.43;;
20935;SDS011;10627;54.514;18.532;2023-02-03T21:12:52;7.63;;;3.53;;
20935;SDS011;10627;54.514;18.532;2023-02-03T21:17:53;6.27;;;3.87;;
20935;SDS011;10627;54.514;18.532;2023-02-03T21:22:54;10.97;;;3.20;;
20935;SDS011;10627;54.514;18.532;2023-02-03T21:27:55;7.23;;;3.27;;
20935;SDS011;10627;54.514;18.532;2023-02-03T21:32:57;11.57;;;3.17;;
20935;SDS011;10627;54.514;18.532;2023-02-03T21:37:58;5.93;;;3.07;;
20935;SDS011;10627;54.514;18.532;2023-02-03T21:43:03;5.03;;;2.90;;
20935;SDS011;10627;54.514;18.532;2023-02-03T21:48:26;3.57;;;2.47;;
20935;SDS011;10627;54.514;18.532;2023-02-03T21:53:29;3.53;;;2.07;;
20935;SDS011;10627;54.514;18.532;2023-02-03T21:58:34;2.73;;;2.27;;
20935;SDS011;10627;54.514;18.532;2023-02-03T22:03:36;3.40;;;1.90;;
20935;SDS011;10627;54.514;18.532;2023-02-03T22:13:39;7.20;;;2.83;;
20935;SDS011;10627;54.514;18.532;2023-02-03T22:18:40;2.83;;;1.77;;
20935;SDS011;10627;54.514;18.532;2023-02-03T22:23:41;2.60;;;1.70;;
20935;SDS011;10627;54.514;18.532;2023-02-03T22:28:42;3.00;;;1.70;;
20935;SDS011;10627;54.514;18.532;2023-02-03T22:33:42;3.27;;;2.23;;
20935;SDS011;10627;54.514;18.532;2023-02-03T22:38:43;4.70;;;2.43;;
20935;SDS011;10627;54.514;18.532;2023-02-03T22:43:44;1.97;;;1.80;;
20935;SDS011;10627;54.514;18.532;2023-02-03T22:48:44;2.83;;;1.60;;
20935;SDS011;10627;54.514;18.532;2023-02-03T22:53:45;1.50;;;1.40;;
20935;SDS011;10627;54.514;18.532;2023-02-03T22:58:45;2.30;;;1.97;;
20935;SDS011;10627;54.514;18.532;2023-02-03T23:03:46;1.30;;;1.20;;
20935;SDS011;10627;54.514;18.532;2023-02-03T23:08:46;3.03;;;1.60;;
20935;SDS011;10627;54.514;18.532;2023-02-03T23:13:47;2.03;;;1.50;;
20935;SDS011;10627;54.514;18.532;2023-02-03T23:18:48;1.30;;;1.00;;
20935;SDS011;10627;54.514;18.532;2023-02-03T23:23:49;2.43;;;1.40;;
20935;SDS011;10627;54.514;18.532;2023-02-03T23:28:49;1.27;;;1.03;;
20935;SDS011;10627;54.514;18.532;2023-02-03T23:33:50;2.20;;;0.80;;
20935;SDS011;10627;54.514;18.532;2023-02-03T23:39:09;2.93;;;0.97;;
20935;SDS011;10627;54.514;18.532;2023-02-03T23:44:10;2.37;;;1.00;;
20935;SDS011;10627;54.514;18.532;2023-02-03T23:49:11;2.37;;;1.27;;
20935;SDS011;10627;54.514;18.532;2023-02-03T23:54:11;3.97;;;1.17;;
20935;SDS011;10627;54.514;18.532;2023-02-03T23:59:12;2.50;;;1.20;;
